sensor_id;sensor_type;location;lat;lon;timestamp;P1;durP1;ratioP1;P2;durP2;ratioP2
13683;SDS011;6914;53.552;9.908;2023-07-28T00:02:10;10.33;;;9.37;;
13683;SDS011;6914;53.552;9.908;2023-07-28T00:04:37;10.10;;;9.30;;
13683;SDS011;6914;53.552;9.908;2023-07-28T00:07:05;10.77;;;9.53;;
13683;SDS011;6914;53.552;9.908;2023-07-28T00:09:33;10.13;;;9.33;;
13683;SDS011;6914;53.552;9.908;2023-07-28T00:12:01;10.67;;;9.77;;
13683;SDS011;6914;53.552;9.908;2023-07-28T00:14:28;9.70;;;9.00;;
13683;SDS011;6914;53.552;9.908;2023-07-28T00:16:56;9.43;;;8.73;;
13683;SDS011;6914;53.552;9.908;2023-07-28T00:19:23;9.80;;;9.10;;
13683;SDS011;6914;53.552;9.908;2023-07-28T00:21:51;9.47;;;8.60;;
13683;SDS011;6914;53.552;9.908;2023-07-28T00:24:18;9.97;;;9.27;;
13683;SDS011;6914;53.552;9.908;2023-07-28T00:26:46;8.80;;;8.20;;
13683;SDS011;6914;53.552;9.908;2023-07-28T00:29:13;10.60;;;9.67;;
13683;SDS011;6914;53.552;9.908;2023-07-28T00:31:40;11.97;;;10.10;;
13683;SDS011;6914;53.552;9.908;2023-07-28T00:34:08;10.90;;;10.00;;
13683;SDS011;6914;53.552;9.908;2023-07-28T00:36:35;10.90;;;10.00;;
13683;SDS011;6914;53.552;9.908;2023-07-28T00:39:02;10.73;;;9.83;;
13683;SDS011;6914;53.552;9.908;2023-07-28T00:41:29;10.30;;;9.47;;
13683;SDS011;6914;53.552;9.908;2023-07-28T00:43:57;10.10;;;9.40;;
13683;SDS011;6914;53.552;9.908;2023-07-28T00:46:24;8.37;;;7.77;;
13683;SDS011;6914;53.552;9.908;2023-07-28T00:48:52;9.00;;;8.40;;
13683;SDS011;6914;53.552;9.908;2023-07-28T00:51:19;9.50;;;8.87;;
13683;SDS011;6914;53.552;9.908;2023-07-28T00:53:46;8.90;;;8.30;;
13683;SDS011;6914;53.552;9.908;2023-07-28T00:56:13;9.20;;;8.50;;
13683;SDS011;6914;53.552;9.908;2023-07-28T00:58:41;8.20;;;7.70;;
13683;SDS011;6914;53.552;9.908;2023-07-28T01:01:10;10.33;;;9.53;;
13683;SDS011;6914;53.552;9.908;2023-07-28T01:03:37;9.73;;;8.93;;
13683;SDS011;6914;53.552;9.908;2023-07-28T01:06:10;7.20;;;6.80;;
13683;SDS011;6914;53.552;9.908;2023-07-28T01:08:42;8.37;;;7.87;;
13683;SDS011;6914;53.552;9.908;2023-07-28T01:11:12;8.10;;;7.60;;
13683;SDS011;6914;53.552;9.908;2023-07-28T01:13:40;8.07;;;7.53;;
13683;SDS011;6914;53.552;9.908;2023-07-28T01:16:07;7.10;;;6.70;;
13683;SDS011;6914;53.552;9.908;2023-07-28T01:18:36;7.20;;;6.80;;
13683;SDS011;6914;53.552;9.908;2023-07-28T01:21:04;8.20;;;7.50;;
13683;SDS011;6914;53.552;9.908;2023-07-28T01:23:35;6.30;;;6.00;;
13683;SDS011;6914;53.552;9.908;2023-07-28T01:26:05;7.10;;;6.60;;
13683;SDS011;6914;53.552;9.908;2023-07-28T01:28:34;6.83;;;6.43;;
13683;SDS011;6914;53.552;9.908;2023-07-28T01:31:02;12.40;;;6.87;;
13683;SDS011;6914;53.552;9.908;2023-07-28T01:33:29;5.73;;;5.43;;
13683;SDS011;6914;53.552;9.908;2023-07-28T01:35:56;6.90;;;6.60;;
13683;SDS011;6914;53.552;9.908;2023-07-28T01:38:26;7.53;;;7.03;;
13683;SDS011;6914;53.552;9.908;2023-07-28T01:40:53;8.00;;;7.43;;
13683;SDS011;6914;53.552;9.908;2023-07-28T01:43:20;7.67;;;7.27;;
13683;SDS011;6914;53.552;9.908;2023-07-28T01:45:49;7.13;;;6.77;;
13683;SDS011;6914;53.552;9.908;2023-07-28T01:48:16;6.37;;;6.00;;
13683;SDS011;6914;53.552;9.908;2023-07-28T01:50:43;7.23;;;6.80;;
13683;SDS011;6914;53.552;9.908;2023-07-28T01:53:10;6.60;;;6.20;;
13683;SDS011;6914;53.552;9.908;2023-07-28T01:55:37;6.90;;;6.57;;
13683;SDS011;6914;53.552;9.908;2023-07-28T01:58:04;7.57;;;7.07;;
13683;SDS011;6914;53.552;9.908;2023-07-28T02:00:31;6.97;;;6.60;;
13683;SDS011;6914;53.552;9.908;2023-07-28T02:03:00;7.97;;;6.93;;
13683;SDS011;6914;53.552;9.908;2023-07-28T02:05:28;5.63;;;5.43;;
13683;SDS011;6914;53.552;9.908;2023-07-28T02:07:55;6.77;;;6.37;;
13683;SDS011;6914;53.552;9.908;2023-07-28T02:10:22;5.73;;;5.50;;
13683;SDS011;6914;53.552;9.908;2023-07-28T02:12:50;9.17;;;8.23;;
13683;SDS011;6914;53.552;9.908;2023-07-28T02:15:17;7.50;;;7.10;;
13683;SDS011;6914;53.552;9.908;2023-07-28T02:17:44;7.57;;;7.07;;
13683;SDS011;6914;53.552;9.908;2023-07-28T02:20:13;8.27;;;7.67;;
13683;SDS011;6914;53.552;9.908;2023-07-28T02:22:40;6.87;;;6.47;;
13683;SDS011;6914;53.552;9.908;2023-07-28T02:25:08;8.40;;;7.73;;
13683;SDS011;6914;53.552;9.908;2023-07-28T02:27:35;7.93;;;7.30;;
13683;SDS011;6914;53.552;9.908;2023-07-28T02:30:03;6.83;;;6.43;;
13683;SDS011;6914;53.552;9.908;2023-07-28T02:32:31;8.47;;;7.80;;
13683;SDS011;6914;53.552;9.908;2023-07-28T02:34:58;7.33;;;6.83;;
13683;SDS011;6914;53.552;9.908;2023-07-28T02:37:26;8.27;;;7.67;;
13683;SDS011;6914;53.552;9.908;2023-07-28T02:39:53;7.10;;;6.60;;
13683;SDS011;6914;53.552;9.908;2023-07-28T02:42:21;6.13;;;5.80;;
13683;SDS011;6914;53.552;9.908;2023-07-28T02:44:48;7.53;;;7.00;;
13683;SDS011;6914;53.552;9.908;2023-07-28T02:47:16;6.80;;;6.20;;
13683;SDS011;6914;53.552;9.908;2023-07-28T02:49:43;7.23;;;6.53;;
13683;SDS011;6914;53.552;9.908;2023-07-28T02:52:10;9.60;;;6.50;;
13683;SDS011;6914;53.552;9.908;2023-07-28T02:54:39;9.00;;;6.70;;
13683;SDS011;6914;53.552;9.908;2023-07-28T02:57:06;6.53;;;6.17;;
13683;SDS011;6914;53.552;9.908;2023-07-28T02:59:33;9.40;;;6.60;;
13683;SDS011;6914;53.552;9.908;2023-07-28T03:02:00;5.70;;;5.40;;
13683;SDS011;6914;53.552;9.908;2023-07-28T03:04:28;6.03;;;5.73;;
13683;SDS011;6914;53.552;9.908;2023-07-28T03:06:55;6.63;;;6.23;;
13683;SDS011;6914;53.552;9.908;2023-07-28T03:09:22;6.67;;;6.17;;
13683;SDS011;6914;53.552;9.908;2023-07-28T03:11:50;6.33;;;6.03;;
13683;SDS011;6914;53.552;9.908;2023-07-28T03:14:17;7.37;;;6.87;;
13683;SDS011;6914;53.552;9.908;2023-07-28T03:16:45;7.97;;;7.17;;
13683;SDS011;6914;53.552;9.908;2023-07-28T03:19:12;8.97;;;8.17;;
13683;SDS011;6914;53.552;9.908;2023-07-28T03:21:39;7.90;;;7.00;;
13683;SDS011;6914;53.552;9.908;2023-07-28T03:24:06;7.33;;;6.87;;
13683;SDS011;6914;53.552;9.908;2023-07-28T03:26:33;8.43;;;7.40;;
13683;SDS011;6914;53.552;9.908;2023-07-28T03:29:02;7.83;;;7.23;;
13683;SDS011;6914;53.552;9.908;2023-07-28T03:31:29;7.37;;;6.87;;
13683;SDS011;6914;53.552;9.908;2023-07-28T03:34:00;6.87;;;6.30;;
13683;SDS011;6914;53.552;9.908;2023-07-28T03:36:27;8.00;;;7.30;;
13683;SDS011;6914;53.552;9.908;2023-07-28T03:38:54;8.20;;;7.60;;
13683;SDS011;6914;53.552;9.908;2023-07-28T03:41:21;6.33;;;6.03;;
13683;SDS011;6914;53.552;9.908;2023-07-28T03:43:48;8.23;;;7.73;;
13683;SDS011;6914;53.552;9.908;2023-07-28T03:46:17;7.33;;;6.63;;
13683;SDS011;6914;53.552;9.908;2023-07-28T03:48:46;8.60;;;7.90;;
13683;SDS011;6914;53.552;9.908;2023-07-28T03:51:14;7.57;;;7.17;;
13683;SDS011;6914;53.552;9.908;2023-07-28T03:53:41;6.67;;;6.07;;
13683;SDS011;6914;53.552;9.908;2023-07-28T03:56:08;8.70;;;6.13;;
13683;SDS011;6914;53.552;9.908;2023-07-28T03:58:35;6.33;;;6.03;;
13683;SDS011;6914;53.552;9.908;2023-07-28T04:01:02;6.63;;;6.33;;
13683;SDS011;6914;53.552;9.908;2023-07-28T04:03:35;5.80;;;5.53;;
13683;SDS011;6914;53.552;9.908;2023-07-28T04:06:05;6.67;;;6.27;;
13683;SDS011;6914;53.552;9.908;2023-07-28T04:08:33;13.10;;;5.07;;
13683;SDS011;6914;53.552;9.908;2023-07-28T04:11:00;5.27;;;4.97;;
13683;SDS011;6914;53.552;9.908;2023-07-28T04:13:28;5.23;;;4.93;;
13683;SDS011;6914;53.552;9.908;2023-07-28T04:15:55;5.50;;;5.30;;
13683;SDS011;6914;53.552;9.908;2023-07-28T04:18:22;6.57;;;6.17;;
13683;SDS011;6914;53.552;9.908;2023-07-28T04:20:52;7.13;;;6.63;;
13683;SDS011;6914;53.552;9.908;2023-07-28T04:23:19;6.87;;;6.57;;
13683;SDS011;6914;53.552;9.908;2023-07-28T04:25:45;6.43;;;6.13;;
13683;SDS011;6914;53.552;9.908;2023-07-28T04:28:13;6.20;;;5.90;;
13683;SDS011;6914;53.552;9.908;2023-07-28T04:30:40;7.00;;;6.60;;
13683;SDS011;6914;53.552;9.908;2023-07-28T04:33:07;6.70;;;6.30;;
13683;SDS011;6914;53.552;9.908;2023-07-28T04:35:36;7.67;;;7.17;;
13683;SDS011;6914;53.552;9.908;2023-07-28T04:38:05;6.57;;;6.17;;
13683;SDS011;6914;53.552;9.908;2023-07-28T04:40:32;6.80;;;6.30;;
13683;SDS011;6914;53.552;9.908;2023-07-28T04:42:59;6.63;;;6.23;;
13683;SDS011;6914;53.552;9.908;2023-07-28T04:45:28;6.90;;;6.50;;
13683;SDS011;6914;53.552;9.908;2023-07-28T04:47:56;7.60;;;7.10;;
13683;SDS011;6914;53.552;9.908;2023-07-28T04:50:24;6.90;;;6.30;;
13683;SDS011;6914;53.552;9.908;2023-07-28T04:52:52;6.33;;;6.03;;
13683;SDS011;6914;53.552;9.908;2023-07-28T04:55:22;7.03;;;6.63;;
13683;SDS011;6914;53.552;9.908;2023-07-28T04:57:51;7.27;;;6.87;;
13683;SDS011;6914;53.552;9.908;2023-07-28T05:00:18;6.50;;;6.17;;
13683;SDS011;6914;53.552;9.908;2023-07-28T05:02:50;6.93;;;6.53;;
13683;SDS011;6914;53.552;9.908;2023-07-28T05:05:17;7.07;;;6.73;;
13683;SDS011;6914;53.552;9.908;2023-07-28T05:07:44;7.67;;;7.20;;
13683;SDS011;6914;53.552;9.908;2023-07-28T05:10:10;7.60;;;6.73;;
13683;SDS011;6914;53.552;9.908;2023-07-28T05:12:39;7.40;;;7.00;;
13683;SDS011;6914;53.552;9.908;2023-07-28T05:15:06;7.93;;;7.43;;
13683;SDS011;6914;53.552;9.908;2023-07-28T05:17:35;8.53;;;7.93;;
13683;SDS011;6914;53.552;9.908;2023-07-28T05:20:02;9.43;;;8.83;;
13683;SDS011;6914;53.552;9.908;2023-07-28T05:22:29;10.23;;;9.43;;
13683;SDS011;6914;53.552;9.908;2023-07-28T05:24:57;16.80;;;10.17;;
13683;SDS011;6914;53.552;9.908;2023-07-28T05:27:24;11.00;;;10.10;;
13683;SDS011;6914;53.552;9.908;2023-07-28T05:29:52;11.30;;;10.40;;
13683;SDS011;6914;53.552;9.908;2023-07-28T05:32:19;11.00;;;10.10;;
13683;SDS011;6914;53.552;9.908;2023-07-28T05:34:46;12.43;;;11.40;;
13683;SDS011;6914;53.552;9.908;2023-07-28T05:37:13;10.90;;;10.10;;
13683;SDS011;6914;53.552;9.908;2023-07-28T05:39:41;10.30;;;9.30;;
13683;SDS011;6914;53.552;9.908;2023-07-28T05:42:09;10.30;;;9.23;;
13683;SDS011;6914;53.552;9.908;2023-07-28T05:44:36;10.67;;;9.80;;
13683;SDS011;6914;53.552;9.908;2023-07-28T05:47:05;9.63;;;9.03;;
13683;SDS011;6914;53.552;9.908;2023-07-28T05:49:32;11.30;;;10.50;;
13683;SDS011;6914;53.552;9.908;2023-07-28T05:52:00;11.50;;;10.70;;
13683;SDS011;6914;53.552;9.908;2023-07-28T05:54:27;8.90;;;8.40;;
13683;SDS011;6914;53.552;9.908;2023-07-28T05:56:54;7.80;;;7.40;;
13683;SDS011;6914;53.552;9.908;2023-07-28T05:59:21;8.40;;;7.77;;
13683;SDS011;6914;53.552;9.908;2023-07-28T06:01:48;9.10;;;8.40;;
13683;SDS011;6914;53.552;9.908;2023-07-28T06:04:17;8.47;;;7.77;;
13683;SDS011;6914;53.552;9.908;2023-07-28T06:06:44;9.13;;;8.30;;
13683;SDS011;6914;53.552;9.908;2023-07-28T06:09:11;8.57;;;8.13;;
13683;SDS011;6914;53.552;9.908;2023-07-28T06:11:38;8.53;;;7.93;;
13683;SDS011;6914;53.552;9.908;2023-07-28T06:14:05;8.70;;;8.20;;
13683;SDS011;6914;53.552;9.908;2023-07-28T06:16:32;7.60;;;7.23;;
13683;SDS011;6914;53.552;9.908;2023-07-28T06:18:59;7.10;;;6.57;;
13683;SDS011;6914;53.552;9.908;2023-07-28T06:21:28;7.10;;;6.77;;
13683;SDS011;6914;53.552;9.908;2023-07-28T06:23:55;5.87;;;5.57;;
13683;SDS011;6914;53.552;9.908;2023-07-28T06:26:22;6.73;;;6.50;;
13683;SDS011;6914;53.552;9.908;2023-07-28T06:28:49;6.07;;;5.63;;
13683;SDS011;6914;53.552;9.908;2023-07-28T06:31:16;5.93;;;5.67;;
13683;SDS011;6914;53.552;9.908;2023-07-28T06:33:43;6.87;;;6.50;;
13683;SDS011;6914;53.552;9.908;2023-07-28T06:36:11;7.23;;;6.90;;
13683;SDS011;6914;53.552;9.908;2023-07-28T06:38:39;7.60;;;6.93;;
13683;SDS011;6914;53.552;9.908;2023-07-28T06:41:08;7.00;;;6.70;;
13683;SDS011;6914;53.552;9.908;2023-07-28T06:43:35;5.93;;;5.63;;
13683;SDS011;6914;53.552;9.908;2023-07-28T06:46:03;5.80;;;5.40;;
13683;SDS011;6914;53.552;9.908;2023-07-28T06:48:30;5.80;;;5.60;;
13683;SDS011;6914;53.552;9.908;2023-07-28T06:50:57;6.07;;;5.77;;
13683;SDS011;6914;53.552;9.908;2023-07-28T06:53:24;5.33;;;5.07;;
13683;SDS011;6914;53.552;9.908;2023-07-28T06:55:53;6.03;;;5.73;;
13683;SDS011;6914;53.552;9.908;2023-07-28T06:58:20;7.13;;;6.73;;
13683;SDS011;6914;53.552;9.908;2023-07-28T07:00:47;6.80;;;6.50;;
13683;SDS011;6914;53.552;9.908;2023-07-28T07:03:14;5.70;;;5.40;;
13683;SDS011;6914;53.552;9.908;2023-07-28T07:05:42;5.20;;;4.80;;
13683;SDS011;6914;53.552;9.908;2023-07-28T07:08:09;4.13;;;4.03;;
13683;SDS011;6914;53.552;9.908;2023-07-28T07:10:37;6.40;;;4.30;;
13683;SDS011;6914;53.552;9.908;2023-07-28T07:13:05;3.60;;;3.40;;
13683;SDS011;6914;53.552;9.908;2023-07-28T07:15:33;3.30;;;3.20;;
13683;SDS011;6914;53.552;9.908;2023-07-28T07:18:01;4.43;;;4.20;;
13683;SDS011;6914;53.552;9.908;2023-07-28T07:20:28;3.77;;;3.57;;
13683;SDS011;6914;53.552;9.908;2023-07-28T07:22:55;3.87;;;3.77;;
13683;SDS011;6914;53.552;9.908;2023-07-28T07:25:22;3.63;;;3.43;;
13683;SDS011;6914;53.552;9.908;2023-07-28T07:27:49;4.20;;;4.10;;
13683;SDS011;6914;53.552;9.908;2023-07-28T07:30:18;3.57;;;3.47;;
13683;SDS011;6914;53.552;9.908;2023-07-28T07:32:45;2.93;;;2.73;;
13683;SDS011;6914;53.552;9.908;2023-07-28T07:35:12;5.27;;;3.67;;
13683;SDS011;6914;53.552;9.908;2023-07-28T07:37:39;3.00;;;2.90;;
13683;SDS011;6914;53.552;9.908;2023-07-28T07:40:07;2.67;;;2.57;;
13683;SDS011;6914;53.552;9.908;2023-07-28T07:42:41;3.87;;;3.77;;
13683;SDS011;6914;53.552;9.908;2023-07-28T07:45:09;5.10;;;3.73;;
13683;SDS011;6914;53.552;9.908;2023-07-28T07:47:38;2.80;;;2.70;;
13683;SDS011;6914;53.552;9.908;2023-07-28T07:50:05;3.23;;;3.03;;
13683;SDS011;6914;53.552;9.908;2023-07-28T07:52:34;3.97;;;3.87;;
13683;SDS011;6914;53.552;9.908;2023-07-28T07:55:01;3.93;;;3.73;;
13683;SDS011;6914;53.552;9.908;2023-07-28T07:57:29;3.60;;;3.30;;
13683;SDS011;6914;53.552;9.908;2023-07-28T07:59:57;3.43;;;3.33;;
13683;SDS011;6914;53.552;9.908;2023-07-28T08:02:24;3.50;;;3.40;;
13683;SDS011;6914;53.552;9.908;2023-07-28T08:04:52;3.40;;;3.20;;
13683;SDS011;6914;53.552;9.908;2023-07-28T08:07:20;3.57;;;3.37;;
13683;SDS011;6914;53.552;9.908;2023-07-28T08:09:48;2.60;;;2.50;;
13683;SDS011;6914;53.552;9.908;2023-07-28T08:12:15;7.53;;;3.50;;
13683;SDS011;6914;53.552;9.908;2023-07-28T08:14:42;4.93;;;3.57;;
13683;SDS011;6914;53.552;9.908;2023-07-28T08:17:11;5.23;;;3.30;;
13683;SDS011;6914;53.552;9.908;2023-07-28T08:19:38;3.30;;;3.10;;
13683;SDS011;6914;53.552;9.908;2023-07-28T08:22:06;5.17;;;2.90;;
13683;SDS011;6914;53.552;9.908;2023-07-28T08:24:34;5.50;;;2.47;;
13683;SDS011;6914;53.552;9.908;2023-07-28T08:27:01;2.77;;;2.57;;
13683;SDS011;6914;53.552;9.908;2023-07-28T08:29:28;3.37;;;3.17;;
13683;SDS011;6914;53.552;9.908;2023-07-28T08:31:55;3.27;;;3.00;;
13683;SDS011;6914;53.552;9.908;2023-07-28T08:34:23;2.63;;;2.53;;
13683;SDS011;6914;53.552;9.908;2023-07-28T08:36:50;2.10;;;2.00;;
13683;SDS011;6914;53.552;9.908;2023-07-28T08:39:18;2.50;;;2.00;;
13683;SDS011;6914;53.552;9.908;2023-07-28T08:41:45;2.20;;;2.10;;
13683;SDS011;6914;53.552;9.908;2023-07-28T08:44:12;12.23;;;2.47;;
13683;SDS011;6914;53.552;9.908;2023-07-28T08:46:41;2.50;;;2.40;;
13683;SDS011;6914;53.552;9.908;2023-07-28T08:49:08;3.07;;;2.87;;
13683;SDS011;6914;53.552;9.908;2023-07-28T08:51:38;2.30;;;2.10;;
13683;SDS011;6914;53.552;9.908;2023-07-28T08:54:07;2.27;;;2.17;;
13683;SDS011;6914;53.552;9.908;2023-07-28T08:56:35;1.80;;;1.70;;
13683;SDS011;6914;53.552;9.908;2023-07-28T08:59:03;1.80;;;1.70;;
13683;SDS011;6914;53.552;9.908;2023-07-28T09:01:30;1.47;;;1.47;;
13683;SDS011;6914;53.552;9.908;2023-07-28T09:03:57;1.10;;;1.10;;
13683;SDS011;6914;53.552;9.908;2023-07-28T09:06:27;1.07;;;1.07;;
13683;SDS011;6914;53.552;9.908;2023-07-28T09:08:56;1.50;;;1.40;;
13683;SDS011;6914;53.552;9.908;2023-07-28T09:11:23;1.47;;;1.47;;
13683;SDS011;6914;53.552;9.908;2023-07-28T09:13:53;1.30;;;1.10;;
13683;SDS011;6914;53.552;9.908;2023-07-28T09:16:22;1.30;;;1.30;;
13683;SDS011;6914;53.552;9.908;2023-07-28T09:18:49;1.40;;;1.30;;
13683;SDS011;6914;53.552;9.908;2023-07-28T09:21:18;1.60;;;1.53;;
13683;SDS011;6914;53.552;9.908;2023-07-28T09:23:46;1.97;;;1.87;;
13683;SDS011;6914;53.552;9.908;2023-07-28T09:26:13;2.60;;;2.50;;
13683;SDS011;6914;53.552;9.908;2023-07-28T09:28:41;2.40;;;2.30;;
13683;SDS011;6914;53.552;9.908;2023-07-28T09:31:09;1.67;;;1.57;;
13683;SDS011;6914;53.552;9.908;2023-07-28T09:33:37;2.60;;;2.40;;
13683;SDS011;6914;53.552;9.908;2023-07-28T09:36:08;2.40;;;2.30;;
13683;SDS011;6914;53.552;9.908;2023-07-28T09:38:36;2.33;;;2.23;;
13683;SDS011;6914;53.552;9.908;2023-07-28T09:41:04;2.00;;;1.90;;
13683;SDS011;6914;53.552;9.908;2023-07-28T09:43:33;2.03;;;1.93;;
13683;SDS011;6914;53.552;9.908;2023-07-28T09:46:00;1.93;;;1.87;;
13683;SDS011;6914;53.552;9.908;2023-07-28T09:48:31;2.40;;;2.20;;
13683;SDS011;6914;53.552;9.908;2023-07-28T09:50:58;2.10;;;2.00;;
13683;SDS011;6914;53.552;9.908;2023-07-28T09:53:26;1.90;;;1.80;;
13683;SDS011;6914;53.552;9.908;2023-07-28T09:55:55;1.60;;;1.53;;
13683;SDS011;6914;53.552;9.908;2023-07-28T09:58:23;1.63;;;1.53;;
13683;SDS011;6914;53.552;9.908;2023-07-28T10:00:51;7.47;;;2.50;;
13683;SDS011;6914;53.552;9.908;2023-07-28T10:03:18;2.60;;;2.27;;
13683;SDS011;6914;53.552;9.908;2023-07-28T10:05:47;1.90;;;1.90;;
13683;SDS011;6914;53.552;9.908;2023-07-28T10:08:14;3.47;;;1.57;;
13683;SDS011;6914;53.552;9.908;2023-07-28T10:10:43;10.37;;;2.70;;
13683;SDS011;6914;53.552;9.908;2023-07-28T10:13:18;6.73;;;2.80;;
13683;SDS011;6914;53.552;9.908;2023-07-28T10:15:46;4.63;;;2.20;;
13683;SDS011;6914;53.552;9.908;2023-07-28T10:18:13;5.20;;;2.33;;
13683;SDS011;6914;53.552;9.908;2023-07-28T10:20:42;4.70;;;2.20;;
13683;SDS011;6914;53.552;9.908;2023-07-28T10:23:15;4.70;;;2.40;;
13683;SDS011;6914;53.552;9.908;2023-07-28T10:25:43;2.50;;;2.30;;
13683;SDS011;6914;53.552;9.908;2023-07-28T10:28:27;2.40;;;2.30;;
13683;SDS011;6914;53.552;9.908;2023-07-28T10:30:56;2.30;;;2.20;;
13683;SDS011;6914;53.552;9.908;2023-07-28T10:33:27;3.90;;;2.80;;
13683;SDS011;6914;53.552;9.908;2023-07-28T10:35:54;4.53;;;1.97;;
13683;SDS011;6914;53.552;9.908;2023-07-28T10:38:32;8.20;;;2.77;;
13683;SDS011;6914;53.552;9.908;2023-07-28T10:41:11;3.43;;;1.97;;
13683;SDS011;6914;53.552;9.908;2023-07-28T10:43:38;3.10;;;2.20;;
13683;SDS011;6914;53.552;9.908;2023-07-28T10:46:05;2.33;;;2.20;;
13683;SDS011;6914;53.552;9.908;2023-07-28T10:48:34;2.30;;;2.20;;
13683;SDS011;6914;53.552;9.908;2023-07-28T10:51:02;2.37;;;2.27;;
13683;SDS011;6914;53.552;9.908;2023-07-28T10:53:32;2.50;;;2.37;;
13683;SDS011;6914;53.552;9.908;2023-07-28T10:56:00;2.27;;;2.17;;
13683;SDS011;6914;53.552;9.908;2023-07-28T10:58:27;3.30;;;2.10;;
13683;SDS011;6914;53.552;9.908;2023-07-28T11:00:54;2.40;;;2.30;;
13683;SDS011;6914;53.552;9.908;2023-07-28T11:03:22;3.37;;;1.93;;
13683;SDS011;6914;53.552;9.908;2023-07-28T11:05:49;2.93;;;2.20;;
13683;SDS011;6914;53.552;9.908;2023-07-28T11:08:16;1.63;;;1.63;;
13683;SDS011;6914;53.552;9.908;2023-07-28T11:10:45;3.07;;;1.90;;
13683;SDS011;6914;53.552;9.908;2023-07-28T11:13:12;2.20;;;2.10;;
13683;SDS011;6914;53.552;9.908;2023-07-28T11:15:40;1.70;;;1.70;;
13683;SDS011;6914;53.552;9.908;2023-07-28T11:18:07;2.60;;;1.90;;
13683;SDS011;6914;53.552;9.908;2023-07-28T11:20:35;2.30;;;2.20;;
13683;SDS011;6914;53.552;9.908;2023-07-28T11:23:02;1.60;;;1.60;;
13683;SDS011;6914;53.552;9.908;2023-07-28T11:25:31;1.87;;;1.77;;
13683;SDS011;6914;53.552;9.908;2023-07-28T11:28:01;1.80;;;1.70;;
13683;SDS011;6914;53.552;9.908;2023-07-28T11:30:30;1.37;;;1.37;;
13683;SDS011;6914;53.552;9.908;2023-07-28T11:32:58;3.13;;;1.60;;
13683;SDS011;6914;53.552;9.908;2023-07-28T11:35:25;1.57;;;1.20;;
13683;SDS011;6914;53.552;9.908;2023-07-28T11:37:53;1.40;;;1.40;;
13683;SDS011;6914;53.552;9.908;2023-07-28T11:40:21;1.40;;;1.40;;
13683;SDS011;6914;53.552;9.908;2023-07-28T11:42:51;1.70;;;1.60;;
13683;SDS011;6914;53.552;9.908;2023-07-28T11:45:20;1.40;;;1.30;;
13683;SDS011;6914;53.552;9.908;2023-07-28T11:47:54;1.67;;;1.50;;
13683;SDS011;6914;53.552;9.908;2023-07-28T11:50:24;1.40;;;1.40;;
13683;SDS011;6914;53.552;9.908;2023-07-28T11:52:52;2.63;;;1.63;;
13683;SDS011;6914;53.552;9.908;2023-07-28T11:55:20;2.37;;;1.57;;
13683;SDS011;6914;53.552;9.908;2023-07-28T11:57:47;2.07;;;1.87;;
13683;SDS011;6914;53.552;9.908;2023-07-28T12:00:14;1.43;;;1.43;;
13683;SDS011;6914;53.552;9.908;2023-07-28T12:02:44;1.40;;;1.30;;
13683;SDS011;6914;53.552;9.908;2023-07-28T12:05:12;1.60;;;1.50;;
13683;SDS011;6914;53.552;9.908;2023-07-28T12:07:39;1.03;;;1.03;;
13683;SDS011;6914;53.552;9.908;2023-07-28T12:10:07;1.17;;;1.17;;
13683;SDS011;6914;53.552;9.908;2023-07-28T12:12:41;1.20;;;1.20;;
13683;SDS011;6914;53.552;9.908;2023-07-28T12:15:18;1.67;;;1.40;;
13683;SDS011;6914;53.552;9.908;2023-07-28T12:18:00;1.40;;;1.30;;
13683;SDS011;6914;53.552;9.908;2023-07-28T12:20:32;1.60;;;1.50;;
13683;SDS011;6914;53.552;9.908;2023-07-28T12:22:59;1.30;;;1.30;;
13683;SDS011;6914;53.552;9.908;2023-07-28T12:25:26;1.73;;;1.63;;
13683;SDS011;6914;53.552;9.908;2023-07-28T12:27:54;1.43;;;1.33;;
13683;SDS011;6914;53.552;9.908;2023-07-28T12:30:21;1.50;;;1.50;;
13683;SDS011;6914;53.552;9.908;2023-07-28T12:32:49;5.03;;;1.57;;
13683;SDS011;6914;53.552;9.908;2023-07-28T12:35:17;1.10;;;1.10;;
13683;SDS011;6914;53.552;9.908;2023-07-28T12:37:46;1.20;;;1.20;;
13683;SDS011;6914;53.552;9.908;2023-07-28T12:40:14;1.20;;;1.20;;
13683;SDS011;6914;53.552;9.908;2023-07-28T12:42:41;1.30;;;1.20;;
13683;SDS011;6914;53.552;9.908;2023-07-28T12:45:09;1.30;;;1.30;;
13683;SDS011;6914;53.552;9.908;2023-07-28T12:47:37;1.00;;;1.00;;
13683;SDS011;6914;53.552;9.908;2023-07-28T12:50:04;2.90;;;1.00;;
13683;SDS011;6914;53.552;9.908;2023-07-28T12:52:33;1.03;;;1.03;;
13683;SDS011;6914;53.552;9.908;2023-07-28T12:55:01;1.47;;;1.37;;
13683;SDS011;6914;53.552;9.908;2023-07-28T12:57:28;1.40;;;1.40;;
13683;SDS011;6914;53.552;9.908;2023-07-28T12:59:55;1.43;;;1.33;;
13683;SDS011;6914;53.552;9.908;2023-07-28T13:02:22;1.30;;;1.30;;
13683;SDS011;6914;53.552;9.908;2023-07-28T13:04:49;1.20;;;1.20;;
13683;SDS011;6914;53.552;9.908;2023-07-28T13:07:16;1.40;;;1.30;;
13683;SDS011;6914;53.552;9.908;2023-07-28T13:09:45;1.37;;;1.30;;
13683;SDS011;6914;53.552;9.908;2023-07-28T13:12:12;3.10;;;1.40;;
13683;SDS011;6914;53.552;9.908;2023-07-28T13:14:39;1.67;;;1.57;;
13683;SDS011;6914;53.552;9.908;2023-07-28T13:17:06;1.30;;;1.30;;
13683;SDS011;6914;53.552;9.908;2023-07-28T13:19:34;1.60;;;1.50;;
13683;SDS011;6914;53.552;9.908;2023-07-28T13:22:01;1.50;;;1.50;;
13683;SDS011;6914;53.552;9.908;2023-07-28T13:24:28;1.60;;;1.60;;
13683;SDS011;6914;53.552;9.908;2023-07-28T13:26:56;1.63;;;1.60;;
13683;SDS011;6914;53.552;9.908;2023-07-28T13:29:23;2.20;;;1.57;;
13683;SDS011;6914;53.552;9.908;2023-07-28T13:31:51;1.73;;;1.63;;
13683;SDS011;6914;53.552;9.908;2023-07-28T13:34:18;1.40;;;1.40;;
13683;SDS011;6914;53.552;9.908;2023-07-28T13:36:45;1.53;;;1.50;;
13683;SDS011;6914;53.552;9.908;2023-07-28T13:39:12;1.50;;;1.40;;
13683;SDS011;6914;53.552;9.908;2023-07-28T13:41:40;1.50;;;1.40;;
13683;SDS011;6914;53.552;9.908;2023-07-28T13:44:09;1.20;;;1.17;;
13683;SDS011;6914;53.552;9.908;2023-07-28T13:46:36;1.80;;;1.70;;
13683;SDS011;6914;53.552;9.908;2023-07-28T13:49:04;1.40;;;1.40;;
13683;SDS011;6914;53.552;9.908;2023-07-28T13:51:31;1.67;;;1.00;;
13683;SDS011;6914;53.552;9.908;2023-07-28T13:53:58;1.63;;;1.53;;
13683;SDS011;6914;53.552;9.908;2023-07-28T13:56:25;1.10;;;1.10;;
13683;SDS011;6914;53.552;9.908;2023-07-28T13:58:53;1.93;;;1.43;;
13683;SDS011;6914;53.552;9.908;2023-07-28T14:01:21;1.70;;;1.60;;
13683;SDS011;6914;53.552;9.908;2023-07-28T14:03:48;0.97;;;0.97;;
13683;SDS011;6914;53.552;9.908;2023-07-28T14:06:15;3.00;;;1.30;;
13683;SDS011;6914;53.552;9.908;2023-07-28T14:08:42;1.33;;;1.33;;
13683;SDS011;6914;53.552;9.908;2023-07-28T14:11:10;1.50;;;1.40;;
13683;SDS011;6914;53.552;9.908;2023-07-28T14:13:37;74.83;;;2.30;;
13683;SDS011;6914;53.552;9.908;2023-07-28T14:16:04;2.17;;;1.43;;
13683;SDS011;6914;53.552;9.908;2023-07-28T14:18:32;1.00;;;1.00;;
13683;SDS011;6914;53.552;9.908;2023-07-28T14:20:59;1.30;;;1.30;;
13683;SDS011;6914;53.552;9.908;2023-07-28T14:23:27;1.07;;;1.03;;
13683;SDS011;6914;53.552;9.908;2023-07-28T14:25:54;1.10;;;1.10;;
13683;SDS011;6914;53.552;9.908;2023-07-28T14:28:22;6.00;;;1.20;;
13683;SDS011;6914;53.552;9.908;2023-07-28T14:30:49;1.50;;;0.80;;
13683;SDS011;6914;53.552;9.908;2023-07-28T14:33:17;1.13;;;1.13;;
13683;SDS011;6914;53.552;9.908;2023-07-28T14:35:46;3.43;;;1.47;;
13683;SDS011;6914;53.552;9.908;2023-07-28T14:38:14;1.27;;;1.17;;
13683;SDS011;6914;53.552;9.908;2023-07-28T14:40:41;1.00;;;0.90;;
13683;SDS011;6914;53.552;9.908;2023-07-28T14:43:11;1.03;;;1.03;;
13683;SDS011;6914;53.552;9.908;2023-07-28T14:45:38;1.17;;;0.90;;
13683;SDS011;6914;53.552;9.908;2023-07-28T14:48:06;2.30;;;0.80;;
13683;SDS011;6914;53.552;9.908;2023-07-28T14:50:33;0.80;;;0.80;;
13683;SDS011;6914;53.552;9.908;2023-07-28T14:53:01;1.30;;;0.87;;
13683;SDS011;6914;53.552;9.908;2023-07-28T14:55:28;1.00;;;1.00;;
13683;SDS011;6914;53.552;9.908;2023-07-28T14:57:55;1.60;;;1.27;;
13683;SDS011;6914;53.552;9.908;2023-07-28T15:00:22;1.20;;;1.07;;
13683;SDS011;6914;53.552;9.908;2023-07-28T15:02:50;1.10;;;1.00;;
13683;SDS011;6914;53.552;9.908;2023-07-28T15:05:17;1.50;;;1.10;;